Meteorología y climatología de Navarra
Datos de la estación - Meteo Navarra

Estación de Tafalla GN

Altitud 430 m.


Datos desde el 26/03/2020 hasta el 27/03/2020 en horario solar
Los datos son PROVISIONALES

Anterior Página 1 de 1 Siguiente Descargar: Formato para Excel 2000 o superior   Formato csv   Formato para OpenOffice Calc
Fecha Temperatura Humedad relativa Radiación global Insolación Precipitación Vel. viento 10 m Vel. viento 10 m Dir. viento 10 m
ºC % W/m² s l/m² m/s km/h º
26/03/2020 0:00 2.6 86 0.0 0 0.0 3.1 11.0 298
26/03/2020 0:10 3.3 80 0.0 0 0.0 3.9 14.1 314
26/03/2020 0:20 3.1 80 0.0 0 0.0 2.5 9.0 337
26/03/2020 0:30 3.5 79 0.0 0 0.0 2.2 8.1 326
26/03/2020 0:40 3.7 78 0.0 0 0.0 3.2 11.4 298
26/03/2020 0:50 4.1 76 0.0 0 0.0 4.2 15.3 307
26/03/2020 1:00 4.1 75 0.0 0 0.0 3.9 14.0 306
26/03/2020 1:10 3.8 78 0.0 0 0.0 3.3 11.8 294
26/03/2020 1:20 3.5 80 0.0 0 0.0 3.1 11.3 293
26/03/2020 1:30 3.4 82 0.0 0 0.0 2.9 10.5 292
26/03/2020 1:40 3.4 82 0.0 0 0.0 2.7 9.8 301
26/03/2020 1:50 3.5 81 0.0 0 0.0 2.1 7.5 290
26/03/2020 2:00 3.5 81 0.0 0 0.0 1.1 4.0 273
26/03/2020 2:10 3.4 82 0.0 0 0.0 0.7 2.5 232
26/03/2020 2:20 3.3 82 0.0 0 0.0 1.0 3.6 214
26/03/2020 2:30 2.9 84 0.0 0 0.0 1.5 5.5 233
26/03/2020 2:40 2.3 88 0.0 0 0.0 1.2 4.1 258
26/03/2020 2:50 2.3 88 0.0 0 0.0 1.1 4.0 278
26/03/2020 3:00 2.1 91 0.0 0 0.0 1.3 4.5 262
26/03/2020 3:10 2.5 89 0.0 0 0.0 1.6 5.7 273
26/03/2020 3:20 2.7 91 0.0 0 0.0 1.8 6.3 317
26/03/2020 3:30 3.2 90 0.0 0 0.0 0.9 3.4 327
26/03/2020 3:40 3.4 89 0.0 0 0.0 1.0 3.6 322
26/03/2020 3:50 3.7 87 0.0 0 0.0 1.7 6.1 336
26/03/2020 4:00 3.9 88 0.0 0 0.0 1.8 6.4 342
26/03/2020 4:10 4.3 88 0.0 0 0.0 2.4 8.8 329
26/03/2020 4:20 4.7 86 0.0 0 0.0 2.2 7.9 323
26/03/2020 4:30 5.1 84 0.0 0 0.0 3.3 11.8 313
26/03/2020 4:40 5.4 82 0.0 0 0.0 4.6 16.4 309
26/03/2020 4:50 5.4 83 0.0 0 0.0 4.7 16.8 307
26/03/2020 5:00 5.3 85 0.0 0 0.0 3.7 13.1 298
26/03/2020 5:10 5.3 85 0.0 0 0.0 4.3 15.6 305
26/03/2020 5:20 5.6 83 0.0 0 0.0 4.6 16.7 302
26/03/2020 5:30 5.3 85 0.0 0 0.0 3.7 13.1 289
26/03/2020 5:40 5.1 87 0.0 0 0.0 3.2 11.5 296
26/03/2020 5:50 5.2 87 0.0 0 0.0 3.2 11.6 299
26/03/2020 6:00 5.5 85 0.0 0 0.0 3.7 13.4 294
26/03/2020 6:10 5.6 84 0.0 0 0.0 3.8 13.6 297
26/03/2020 6:20 6.3 78 0.6 0 0.0 3.5 12.7 306
26/03/2020 6:30 6.3 77 16.9 0 0.0 3.8 13.8 303
26/03/2020 6:40 6.5 75 25.7 0 0.0 3.9 14.0 298
26/03/2020 6:50 6.3 81 43.8 124 0.0 3.2 11.5 291
26/03/2020 7:00 6.6 76 89.7 418 0.0 3.6 13.0 298
26/03/2020 7:10 6.8 73 40.2 4 0.0 3.6 13.1 301
26/03/2020 7:20 6.7 74 77.8 26 0.0 3.6 13.1 298
26/03/2020 7:30 6.9 71 94.2 54 0.0 2.9 10.4 306
26/03/2020 7:40 7.1 69 113.1 46 0.0 3.4 12.1 319
26/03/2020 7:50 7.4 64 129.1 36 0.0 4.5 16.2 330
26/03/2020 8:00 7.6 61 309.7 408 0.0 4.9 17.5 331
26/03/2020 8:10 8.1 58 216.9 192 0.0 5.7 20.5 329
26/03/2020 8:20 8.0 58 144.2 44 0.0 4.8 17.3 326
26/03/2020 8:30 7.9 58 89.8 50 0.0 3.5 12.7 336
26/03/2020 8:40 7.7 58 82.5 0 0.0 4.1 14.7 332
26/03/2020 8:50 7.8 57 147.1 32 0.0 5.5 19.8 331
26/03/2020 9:00 7.7 58 150.9 0 0.0 5.7 20.6 332
26/03/2020 9:10 7.8 56 288.0 142 0.0 4.7 17.0 336
26/03/2020 9:20 8.2 52 294.4 166 0.0 4.8 17.3 352
26/03/2020 9:30 8.2 51 338.1 200 0.0 5.4 19.6 346
26/03/2020 9:40 8.9 47 689.3 556 0.0 6.7 24.2 347
26/03/2020 9:50 9.0 47 752.1 558 0.0 6.9 24.9 341
26/03/2020 10:00 9.1 46 796.7 600 0.0 6.4 22.9 352
26/03/2020 10:10 9.2 48 659.3 486 0.0 5.8 21.0 332
26/03/2020 10:20 9.2 47 834.0 558 0.0 5.9 21.1 352
26/03/2020 10:30 9.1 46 814.0 548 0.0 6.1 22.0 5
26/03/2020 10:40 9.1 47 685.2 426 0.0 5.8 20.8 351
26/03/2020 10:50 8.4 50 317.7 26 0.0 6.6 23.8 329
26/03/2020 11:00 8.3 51 313.0 60 0.0 4.8 17.1 336
26/03/2020 11:10 8.1 52 272.2 0 0.0 6.0 21.7 328
26/03/2020 11:20 8.2 51 379.1 122 0.0 6.1 22.0 329
26/03/2020 11:30 8.5 49 657.6 422 0.0 6.6 23.7 327
26/03/2020 11:40 8.7 49 712.5 454 0.0 6.8 24.6 331
26/03/2020 11:50 9.1 46 917.0 600 0.0 6.4 23.1 330
26/03/2020 12:00 9.4 47 886.0 600 0.0 6.7 24.1 325
26/03/2020 12:10 9.3 41 809.0 554 0.0 7.2 26.1 349
26/03/2020 12:20 9.4 42 884.0 600 0.0 5.5 19.9 347
26/03/2020 12:30 9.5 41 882.0 600 0.0 6.6 23.6 350
26/03/2020 12:40 9.5 40 869.0 600 0.0 5.9 21.2 1
26/03/2020 12:50 9.6 39 866.0 600 0.0 6.6 23.7 357
26/03/2020 13:00 9.5 40 860.0 600 0.0 7.0 25.1 338
26/03/2020 13:10 9.7 40 850.0 600 0.0 5.7 20.5 351
26/03/2020 13:20 9.9 40 837.0 600 0.0 5.3 19.1 354
26/03/2020 13:30 9.9 40 826.0 600 0.0 5.0 18.1 341
26/03/2020 13:40 9.7 40 792.1 594 0.0 5.6 20.3 335
26/03/2020 13:50 9.7 40 795.7 600 0.0 5.3 19.0 333
26/03/2020 14:00 9.7 41 766.4 600 0.0 4.9 17.7 326
26/03/2020 14:10 9.8 40 747.1 600 0.0 5.3 19.2 323
26/03/2020 14:20 9.9 40 731.9 600 0.0 4.7 16.8 344
26/03/2020 14:30 9.9 38 698.6 600 0.0 4.4 15.9 334
26/03/2020 14:40 9.8 38 681.5 600 0.0 4.3 15.6 331
26/03/2020 14:50 9.8 37 659.4 600 0.0 4.5 16.3 343
26/03/2020 15:00 9.8 38 632.7 600 0.0 4.5 16.2 334
26/03/2020 15:10 9.5 37 613.9 600 0.0 5.7 20.6 328
26/03/2020 15:20 9.7 35 585.4 600 0.0 4.8 17.1 356
26/03/2020 15:30 9.6 35 550.7 600 0.0 4.8 17.4 348
26/03/2020 15:40 9.7 33 519.8 600 0.0 5.3 19.2 6
26/03/2020 15:50 9.5 33 491.7 600 0.0 5.8 21.0 5
26/03/2020 16:00 9.4 32 461.6 600 0.0 5.7 20.5 356
26/03/2020 16:10 9.3 34 423.8 600 0.0 5.8 21.0 353
26/03/2020 16:20 9.1 33 386.1 600 0.0 4.7 16.9 354
26/03/2020 16:30 9.1 34 350.3 600 0.0 4.4 15.8 347
26/03/2020 16:40 8.9 36 314.8 600 0.0 3.8 13.8 3
26/03/2020 16:50 8.7 37 282.3 600 0.0 4.6 16.6 359
26/03/2020 17:00 8.5 38 243.6 600 0.0 4.2 15.0 4
26/03/2020 17:10 8.3 40 210.8 600 0.0 3.6 13.1 345
26/03/2020 17:20 8.0 41 180.9 600 0.0 5.1 18.2 345
26/03/2020 17:30 7.7 41 146.6 600 0.0 5.5 19.9 349
26/03/2020 17:40 7.5 42 113.8 600 0.0 4.9 17.5 350
26/03/2020 17:50 7.1 43 80.4 600 0.0 4.4 15.8 338
26/03/2020 18:00 6.9 44 55.5 600 0.0 4.3 15.5 346
26/03/2020 18:10 6.7 45 27.2 218 0.0 3.7 13.3 352
26/03/2020 18:20 6.3 47 1.8 0 0.0 3.1 11.2 337
26/03/2020 18:30 5.9 49 0.0 0 0.0 4.2 15.0 332
26/03/2020 18:40 5.9 49 0.0 0 0.0 4.5 16.2 329
26/03/2020 18:50 5.6 51 0.0 0 0.0 3.0 10.9 338
26/03/2020 19:00 5.5 51 0.0 0 0.0 2.5 9.0 344
26/03/2020 19:10 5.2 52 0.0 0 0.0 2.7 9.8 336
26/03/2020 19:20 5.0 52 0.0 0 0.0 2.6 9.2 2
26/03/2020 19:30 5.0 52 0.0 0 0.0 2.1 7.4 347
26/03/2020 19:40 5.1 52 0.0 0 0.0 3.9 14.1 347
26/03/2020 19:50 5.1 53 0.0 0 0.0 2.8 9.9 343
26/03/2020 20:00 5.1 54 0.0 0 0.0 2.6 9.5 350
26/03/2020 20:10 4.8 55 0.0 0 0.0 3.6 12.9 358
26/03/2020 20:20 4.6 57 0.0 0 0.0 2.6 9.3 46
26/03/2020 20:30 4.4 59 0.0 0 0.0 3.8 13.7 15
26/03/2020 20:40 4.4 58 0.0 0 0.0 3.2 11.7 1
26/03/2020 20:50 4.2 60 0.0 0 0.0 2.8 10.0 348
26/03/2020 21:00 4.1 61 0.0 0 0.0 2.4 8.5 336
26/03/2020 21:10 3.8 63 0.0 0 0.0 2.8 10.0 331
26/03/2020 21:20 3.6 63 0.0 0 0.0 2.4 8.6 334
26/03/2020 21:30 3.6 63 0.0 0 0.0 3.1 11.2 331
26/03/2020 21:40 3.6 64 0.0 0 0.0 3.1 11.2 333
26/03/2020 21:50 3.7 63 0.0 0 0.0 3.3 11.7 343
26/03/2020 22:00 3.6 63 0.0 0 0.0 2.9 10.3 342
26/03/2020 22:10 3.5 64 0.0 0 0.0 2.4 8.5 348
26/03/2020 22:20 3.2 66 0.0 0 0.0 2.7 9.9 355
26/03/2020 22:30 2.5 70 0.0 0 0.0 2.0 7.2 348
26/03/2020 22:40 2.1 72 0.0 0 0.0 2.5 8.9 341
26/03/2020 22:50 2.6 68 0.0 0 0.0 3.0 10.8 356
26/03/2020 23:00 2.6 68 0.0 0 0.0 2.9 10.4 7
26/03/2020 23:10 2.6 68 0.0 0 0.0 3.2 11.6 7
26/03/2020 23:20 2.5 70 0.0 0 0.0 2.4 8.7 0
26/03/2020 23:30 2.9 69 0.0 0 0.0 2.4 8.5 9
26/03/2020 23:40 2.8 69 0.0 0 0.0 1.7 6.2 22
26/03/2020 23:50 2.9 69 0.0 0 0.0 2.3 8.1 23
Anterior Página 1 de 1 Siguiente

NOTA: Tipo de datos según el color:
   - Valores diarios o 10 minutos correctos
   - Valores diarios calculados a partir de un número de datos 10 minutos menor que 144 y mayor que 120, o de un número de datos semihorarios menor que 48 y mayor que 40 (caso de las estaciones de INTIA y del Ministerio)
   - Valores diez minutos estimados


Contacto        Enlaces        Aviso legal